createdAt,value
2023-01-17T00:00:59.299Z,43.58
2023-01-17T00:01:59.384Z,43.58
2023-01-17T00:02:59.456Z,43.68
2023-01-17T00:03:59.574Z,43.68
2023-01-17T00:04:59.478Z,43.68
2023-01-17T00:05:59.493Z,43.68
2023-01-17T00:06:59.484Z,43.68
2023-01-17T00:07:59.508Z,43.68
2023-01-17T00:08:59.592Z,43.58
2023-01-17T00:09:59.510Z,43.58
2023-01-17T00:10:59.527Z,43.58
2023-01-17T00:11:59.524Z,43.58
2023-01-17T00:12:59.556Z,43.58
2023-01-17T00:13:59.644Z,43.58
2023-01-17T00:14:59.619Z,43.58
2023-01-17T00:15:59.632Z,43.58
2023-01-17T00:16:59.602Z,43.58
2023-01-17T00:18:00.487Z,43.58
2023-01-17T00:18:59.614Z,43.58
2023-01-17T00:19:59.621Z,43.58
2023-01-17T00:20:59.685Z,43.58
2023-01-17T00:21:59.674Z,43.58
2023-01-17T00:22:59.645Z,43.48
2023-01-17T00:23:59.707Z,43.48
2023-01-17T00:24:59.673Z,43.48
2023-01-17T00:25:59.653Z,43.58
2023-01-17T00:26:59.706Z,43.48
2023-01-17T00:27:59.684Z,43.48
2023-01-17T00:28:59.660Z,43.48
2023-01-17T00:29:59.705Z,43.48
2023-01-17T00:30:59.665Z,43.48
2023-01-17T00:31:59.659Z,43.48
2023-01-17T00:32:59.680Z,43.48
2023-01-17T00:33:59.650Z,43.48
2023-01-17T00:34:59.623Z,43.48
2023-01-17T00:35:59.585Z,43.48
2023-01-17T00:36:59.591Z,43.48
2023-01-17T00:37:59.617Z,43.48
2023-01-17T00:38:59.650Z,43.48
2023-01-17T00:39:59.629Z,43.48
2023-01-17T00:40:59.638Z,43.48
2023-01-17T00:41:59.646Z,43.48
2023-01-17T00:42:59.635Z,43.48
2023-01-17T00:43:59.689Z,43.48
2023-01-17T00:44:59.599Z,43.48
2023-01-17T00:45:59.595Z,43.48
2023-01-17T00:46:59.569Z,43.48
2023-01-17T00:47:59.565Z,43.38
2023-01-17T00:48:59.585Z,43.38
2023-01-17T00:49:59.599Z,43.38
2023-01-17T00:50:59.639Z,43.38
2023-01-17T00:51:59.591Z,43.38
2023-01-17T00:52:59.567Z,43.38
2023-01-17T00:53:59.565Z,43.38
2023-01-17T00:54:59.562Z,43.38
2023-01-17T00:55:59.590Z,43.38
2023-01-17T00:56:59.619Z,43.38
2023-01-17T00:57:59.580Z,43.38
2023-01-17T00:58:59.599Z,43.38
2023-01-17T00:59:59.605Z,43.38
2023-01-17T01:00:59.615Z,43.38
2023-01-17T01:01:59.702Z,43.38
2023-01-17T01:02:59.591Z,43.38
2023-01-17T01:03:59.503Z,43.38
2023-01-17T01:04:59.500Z,43.28
2023-01-17T01:05:59.523Z,43.28
2023-01-17T01:06:59.524Z,43.28
2023-01-17T01:07:59.510Z,43.28
2023-01-17T01:08:59.515Z,43.28
2023-01-17T01:09:59.526Z,43.28
2023-01-17T01:10:59.543Z,43.28
2023-01-17T01:11:59.569Z,43.28
2023-01-17T01:12:59.535Z,43.28
2023-01-17T01:13:59.519Z,43.28
2023-01-17T01:14:59.557Z,43.28
2023-01-17T01:15:59.520Z,43.28
2023-01-17T01:16:59.536Z,43.28
2023-01-17T01:17:59.529Z,43.28
2023-01-17T01:18:59.514Z,43.28
2023-01-17T01:19:59.525Z,43.28
2023-01-17T01:20:59.541Z,43.28
2023-01-17T01:21:59.518Z,43.28
2023-01-17T01:22:59.529Z,43.18
2023-01-17T01:23:59.541Z,43.18
2023-01-17T01:24:59.513Z,43.18
2023-01-17T01:25:59.515Z,43.28
2023-01-17T01:26:59.524Z,43.18
2023-01-17T01:27:59.530Z,43.18
2023-01-17T01:28:59.530Z,43.28
2023-01-17T01:29:59.502Z,43.28
2023-01-17T01:30:59.465Z,43.18
2023-01-17T01:31:59.463Z,43.28
2023-01-17T01:32:59.471Z,43.28
2023-01-17T01:33:59.466Z,43.28
2023-01-17T01:34:59.459Z,43.18
2023-01-17T01:35:59.468Z,43.18
2023-01-17T01:36:59.479Z,43.18
2023-01-17T01:37:59.463Z,43.18
2023-01-17T01:38:59.500Z,43.18
2023-01-17T01:39:59.456Z,43.18
2023-01-17T01:40:59.435Z,43.18
2023-01-17T01:41:59.464Z,43.18
2023-01-17T01:42:59.490Z,43.18
2023-01-17T01:43:59.466Z,43.18
2023-01-17T01:44:59.668Z,43.18
2023-01-17T01:45:59.501Z,43.18
2023-01-17T01:46:59.427Z,43.18
2023-01-17T01:47:59.398Z,43.18
2023-01-17T01:48:59.448Z,43.18
2023-01-17T01:49:59.394Z,43.18
2023-01-17T01:50:59.397Z,43.18
2023-01-17T01:51:59.398Z,43.08
2023-01-17T01:52:59.407Z,43.18
2023-01-17T01:53:59.406Z,43.08
2023-01-17T01:54:59.435Z,43.08
2023-01-17T01:55:59.423Z,43.08
2023-01-17T01:56:59.426Z,43.08
2023-01-17T01:57:59.466Z,43.08
2023-01-17T01:58:59.425Z,43.18
2023-01-17T01:59:59.412Z,43.18
2023-01-17T02:00:59.594Z,43.18
2023-01-17T02:01:59.371Z,43.08
2023-01-17T02:02:59.400Z,43.08
2023-01-17T02:03:59.404Z,43.08
2023-01-17T02:04:59.348Z,43.08
2023-01-17T02:05:59.357Z,43.08
2023-01-17T02:06:59.363Z,43.08
2023-01-17T02:07:59.371Z,43.08
2023-01-17T02:08:59.409Z,43.08
2023-01-17T02:09:59.391Z,43.08
2023-01-17T02:10:59.384Z,43.08
2023-01-17T02:11:59.393Z,43.08
2023-01-17T02:12:59.370Z,43.08
2023-01-17T02:13:59.378Z,43.08
2023-01-17T02:14:59.421Z,43.08
2023-01-17T02:15:59.386Z,43.08
2023-01-17T02:16:59.385Z,43.08
2023-01-17T02:17:59.379Z,43.08
2023-01-17T02:18:59.440Z,43.08
2023-01-17T02:19:59.382Z,43.08
2023-01-17T02:20:59.379Z,43.08
2023-01-17T02:21:59.326Z,43.08
2023-01-17T02:22:59.375Z,43.08
2023-01-17T02:23:59.333Z,43.08
2023-01-17T02:24:59.324Z,43.08
2023-01-17T02:25:59.352Z,43.08
2023-01-17T02:26:59.372Z,43.08
2023-01-17T02:27:59.334Z,43.08
2023-01-17T02:28:59.340Z,43.08
2023-01-17T02:29:59.302Z,43.08
2023-01-17T02:30:59.266Z,43.08
2023-01-17T02:31:59.270Z,43.08
2023-01-17T02:32:59.243Z,43.08
2023-01-17T02:33:59.239Z,43.08
2023-01-17T02:34:59.225Z,43.08
2023-01-17T02:35:59.240Z,42.97
2023-01-17T02:36:59.240Z,42.97
2023-01-17T02:37:59.239Z,42.97
2023-01-17T02:38:59.229Z,42.97
2023-01-17T02:39:59.219Z,42.97
2023-01-17T02:40:59.169Z,42.97
2023-01-17T02:41:59.251Z,42.97
2023-01-17T02:42:59.223Z,42.97
2023-01-17T02:43:59.186Z,42.97
2023-01-17T02:44:59.222Z,42.97
2023-01-17T02:45:59.228Z,42.97
2023-01-17T02:46:59.149Z,42.97
2023-01-17T02:47:59.094Z,42.97
2023-01-17T02:48:59.105Z,42.97
2023-01-17T02:49:59.081Z,42.97
2023-01-17T02:50:59.114Z,42.97
2023-01-17T02:51:59.062Z,42.97
2023-01-17T02:52:59.090Z,42.97
2023-01-17T02:53:59.064Z,42.97
2023-01-17T02:54:59.119Z,42.97
2023-01-17T02:55:59.094Z,42.97
2023-01-17T02:56:59.216Z,42.86
2023-01-17T02:57:59.131Z,42.86
2023-01-17T02:58:59.153Z,42.86
2023-01-17T02:59:59.162Z,42.88
2023-01-17T03:00:59.259Z,42.86
2023-01-17T03:01:59.331Z,42.97
2023-01-17T03:02:59.131Z,42.96
2023-01-17T03:03:59.109Z,42.86
2023-01-17T03:04:59.126Z,42.86
2023-01-17T03:05:59.068Z,42.86
2023-01-17T03:06:59.109Z,42.86
2023-01-17T03:07:59.085Z,42.86
2023-01-17T03:08:59.091Z,42.86
2023-01-17T03:09:59.071Z,42.86
2023-01-17T03:10:59.099Z,42.86
2023-01-17T03:11:59.103Z,42.86
2023-01-17T03:12:59.097Z,42.86
2023-01-17T03:13:59.114Z,42.88
2023-01-17T03:14:59.170Z,42.86
2023-01-17T03:15:59.137Z,42.86
2023-01-17T03:16:59.082Z,42.86
2023-01-17T03:17:59.124Z,42.86
2023-01-17T03:18:59.053Z,42.86
2023-01-17T03:19:59.054Z,42.86
2023-01-17T03:20:59.010Z,42.86
2023-01-17T03:21:59.007Z,42.76
2023-01-17T03:22:59.009Z,42.76
2023-01-17T03:23:59.023Z,42.86
2023-01-17T03:24:59.073Z,42.86
2023-01-17T03:25:59.105Z,42.86
2023-01-17T03:26:59.084Z,42.76
2023-01-17T03:27:59.105Z,42.76
2023-01-17T03:28:59.109Z,42.76
2023-01-17T03:29:59.111Z,42.76
2023-01-17T03:30:59.111Z,42.86
2023-01-17T03:31:59.047Z,42.76
2023-01-17T03:32:59.480Z,42.76
2023-01-17T03:33:59.036Z,42.76
2023-01-17T03:34:59.057Z,42.76
2023-01-17T03:35:59.015Z,42.76
2023-01-17T03:36:59.027Z,42.76
2023-01-17T03:37:59.045Z,42.76
2023-01-17T03:38:59.075Z,42.66
2023-01-17T03:39:58.996Z,42.76
2023-01-17T03:40:59.029Z,42.66
2023-01-17T03:41:59.031Z,42.76
2023-01-17T03:42:59.060Z,42.76
2023-01-17T03:43:59.054Z,42.66
2023-01-17T03:44:59.020Z,42.66
2023-01-17T03:45:59.085Z,42.66
2023-01-17T03:46:59.017Z,42.76
2023-01-17T03:47:59.001Z,42.76
2023-01-17T03:48:58.962Z,42.66
2023-01-17T03:49:58.958Z,42.76
2023-01-17T03:50:58.962Z,42.66
2023-01-17T03:51:58.932Z,42.66
2023-01-17T03:52:58.914Z,42.66
2023-01-17T03:53:58.918Z,42.66
2023-01-17T03:54:58.872Z,42.76
2023-01-17T03:55:58.867Z,42.66
2023-01-17T03:56:58.949Z,42.66
2023-01-17T03:57:58.976Z,42.66
2023-01-17T03:58:58.954Z,42.66
2023-01-17T03:59:58.956Z,42.66
2023-01-17T04:00:59.017Z,42.66
2023-01-17T04:01:58.970Z,42.66
2023-01-17T04:02:58.898Z,42.76
2023-01-17T04:03:58.847Z,42.76
2023-01-17T04:04:58.843Z,42.76
2023-01-17T04:05:58.832Z,42.76
2023-01-17T04:06:58.874Z,42.66
2023-01-17T04:07:58.908Z,42.66
2023-01-17T04:08:58.912Z,42.66
2023-01-17T04:09:58.854Z,42.55
2023-01-17T04:10:58.902Z,42.55
2023-01-17T04:11:58.904Z,42.55
2023-01-17T04:12:58.919Z,42.55
2023-01-17T04:13:58.997Z,42.55
2023-01-17T04:14:58.939Z,42.55
2023-01-17T04:15:58.931Z,42.55
2023-01-17T04:16:58.925Z,42.55
2023-01-17T04:17:58.863Z,42.66
2023-01-17T04:18:58.851Z,42.66
2023-01-17T04:19:58.834Z,42.66
2023-01-17T04:20:58.871Z,42.55
2023-01-17T04:21:58.825Z,42.55
2023-01-17T04:22:58.813Z,42.55
2023-01-17T04:23:58.862Z,42.55
2023-01-17T04:24:58.845Z,42.55
2023-01-17T04:25:58.853Z,42.55
2023-01-17T04:26:58.812Z,42.66
2023-01-17T04:27:58.784Z,42.66
2023-01-17T04:28:58.825Z,42.55
2023-01-17T04:29:58.840Z,42.55
2023-01-17T04:30:58.858Z,42.55
2023-01-17T04:31:58.777Z,42.55
2023-01-17T04:32:58.756Z,42.55
2023-01-17T04:33:58.741Z,42.55
2023-01-17T04:34:58.736Z,42.66
2023-01-17T04:35:58.744Z,42.66
2023-01-17T04:36:58.760Z,42.66
2023-01-17T04:37:58.756Z,42.66
2023-01-17T04:38:58.764Z,42.55
2023-01-17T04:39:58.749Z,42.55
2023-01-17T04:40:58.764Z,42.55
2023-01-17T04:41:58.759Z,42.55
2023-01-17T04:42:58.803Z,42.55
2023-01-17T04:43:58.777Z,42.55
2023-01-17T04:44:58.757Z,42.55
2023-01-17T04:45:58.858Z,42.55
2023-01-17T04:46:58.771Z,42.55
2023-01-17T04:47:58.768Z,42.55
2023-01-17T04:48:58.737Z,42.55
2023-01-17T04:49:58.734Z,42.55
2023-01-17T04:50:58.726Z,42.46
2023-01-17T04:51:58.710Z,42.55
2023-01-17T04:52:58.720Z,42.46
2023-01-17T04:53:58.702Z,42.46
2023-01-17T04:54:58.688Z,42.46
2023-01-17T04:55:58.717Z,42.46
2023-01-17T04:56:58.697Z,42.46
2023-01-17T04:57:58.729Z,42.46
2023-01-17T04:58:58.676Z,42.46
2023-01-17T04:59:58.656Z,42.46
2023-01-17T05:00:58.731Z,42.46
2023-01-17T05:01:58.736Z,42.46
2023-01-17T05:02:58.704Z,42.46
2023-01-17T05:03:58.665Z,42.46
2023-01-17T05:04:58.654Z,42.46
2023-01-17T05:05:58.635Z,42.46
2023-01-17T05:06:58.651Z,42.46
2023-01-17T05:07:58.625Z,42.46
2023-01-17T05:08:58.648Z,42.46
2023-01-17T05:09:58.623Z,42.35
2023-01-17T05:10:58.630Z,42.35
2023-01-17T05:11:58.616Z,42.46
2023-01-17T05:12:58.622Z,42.35
2023-01-17T05:13:58.612Z,42.46
2023-01-17T05:14:58.626Z,42.46
2023-01-17T05:15:58.696Z,42.46
2023-01-17T05:16:58.615Z,42.46
2023-01-17T05:17:58.624Z,42.46
2023-01-17T05:18:58.633Z,42.35
2023-01-17T05:19:58.579Z,42.46
2023-01-17T05:20:58.621Z,42.35
2023-01-17T05:21:58.608Z,42.35
2023-01-17T05:22:58.619Z,42.35
2023-01-17T05:23:58.580Z,42.35
2023-01-17T05:24:58.561Z,42.35
2023-01-17T05:25:58.589Z,42.35
2023-01-17T05:26:58.567Z,42.35
2023-01-17T05:27:58.586Z,42.35
2023-01-17T05:28:58.540Z,42.35
2023-01-17T05:29:58.549Z,42.35
2023-01-17T05:30:58.605Z,42.35
2023-01-17T05:31:58.554Z,42.35
2023-01-17T05:32:58.573Z,42.35
2023-01-17T05:33:58.555Z,42.35
2023-01-17T05:34:58.534Z,42.35
2023-01-17T05:35:58.557Z,42.35
2023-01-17T05:36:58.562Z,42.35
2023-01-17T05:37:58.550Z,42.35
2023-01-17T05:38:58.553Z,42.35
2023-01-17T05:39:58.547Z,42.35
2023-01-17T05:40:58.523Z,42.35
2023-01-17T05:41:58.527Z,42.35
2023-01-17T05:42:58.542Z,42.35
2023-01-17T05:43:58.510Z,42.35
2023-01-17T05:44:58.550Z,42.35
2023-01-17T05:45:58.560Z,42.35
2023-01-17T05:46:58.487Z,42.35
2023-01-17T05:47:58.523Z,42.25
2023-01-17T05:48:58.529Z,42.35
2023-01-17T05:49:58.503Z,42.25
2023-01-17T05:50:58.502Z,42.35
2023-01-17T05:51:58.464Z,42.25
2023-01-17T05:52:58.458Z,42.25
2023-01-17T05:53:58.475Z,42.25
2023-01-17T05:54:58.488Z,42.25
2023-01-17T05:55:58.425Z,42.25
2023-01-17T05:56:58.431Z,42.25
2023-01-17T05:57:58.428Z,42.25
2023-01-17T05:58:58.435Z,42.25
2023-01-17T05:59:58.411Z,42.25
2023-01-17T06:00:58.473Z,42.25
2023-01-17T06:01:58.410Z,42.25
2023-01-17T06:02:58.519Z,42.25
2023-01-17T06:03:58.390Z,42.25
2023-01-17T06:04:58.376Z,42.25
2023-01-17T06:05:58.373Z,42.25
2023-01-17T06:06:58.349Z,42.25
2023-01-17T06:07:58.352Z,42.25
2023-01-17T06:08:58.336Z,42.25
2023-01-17T06:09:58.345Z,42.25
2023-01-17T06:10:58.301Z,42.25
2023-01-17T06:11:58.302Z,42.25
2023-01-17T06:12:58.304Z,42.25
2023-01-17T06:13:58.303Z,42.25
2023-01-17T06:14:58.333Z,42.25
2023-01-17T06:15:58.344Z,42.25
2023-01-17T06:16:58.272Z,42.25
2023-01-17T06:17:58.276Z,42.25
2023-01-17T06:18:58.283Z,42.25
2023-01-17T06:19:58.293Z,42.25
2023-01-17T06:20:58.277Z,42.25
2023-01-17T06:21:58.255Z,42.25
2023-01-17T06:22:58.242Z,42.25
2023-01-17T06:23:58.212Z,42.16
2023-01-17T06:24:58.256Z,42.16
2023-01-17T06:25:58.219Z,42.25
2023-01-17T06:26:58.223Z,42.25
2023-01-17T06:27:58.207Z,42.16
2023-01-17T06:28:58.197Z,42.16
2023-01-17T06:29:58.212Z,42.16
2023-01-17T06:30:58.233Z,42.25
2023-01-17T06:32:00.276Z,42.25
2023-01-17T06:32:58.244Z,42.25
2023-01-17T06:33:58.174Z,42.25
2023-01-17T06:34:58.151Z,42.16
2023-01-17T06:35:58.147Z,42.16
2023-01-17T06:36:58.115Z,42.16
2023-01-17T06:37:58.123Z,42.16
2023-01-17T06:38:58.118Z,42.13
2023-01-17T06:39:58.110Z,42.16
2023-01-17T06:40:58.093Z,42.16
2023-01-17T06:41:58.101Z,42.16
2023-01-17T06:42:58.081Z,42.16
2023-01-17T06:43:58.137Z,42.16
2023-01-17T06:44:58.062Z,42.16
2023-01-17T06:45:58.034Z,42.16
2023-01-17T06:46:58.044Z,42.16
2023-01-17T06:47:58.034Z,42.16
2023-01-17T06:48:58.018Z,42.16
2023-01-17T06:49:58.015Z,42.13
2023-01-17T06:50:58.043Z,42.16
2023-01-17T06:51:58.012Z,42.16
2023-01-17T06:52:58.099Z,42.16
2023-01-17T06:53:58.001Z,42.16
2023-01-17T06:54:58.011Z,42.16
2023-01-17T06:55:58.010Z,42.13
2023-01-17T06:56:57.989Z,42.16
2023-01-17T06:57:57.977Z,42.16
2023-01-17T06:58:58.004Z,42.16
2023-01-17T06:59:57.977Z,42.16
2023-01-17T07:00:58.123Z,42.16
2023-01-17T07:01:57.981Z,42.16
2023-01-17T07:02:58.033Z,42.16
2023-01-17T07:03:58.096Z,42.16
2023-01-17T07:04:58.004Z,42.16
2023-01-17T07:05:57.985Z,42.16
2023-01-17T07:06:57.970Z,42.16
2023-01-17T07:07:57.940Z,42.16
2023-01-17T07:08:57.950Z,42.16
2023-01-17T07:09:57.933Z,42.13
2023-01-17T07:10:57.939Z,42.13
2023-01-17T07:11:57.947Z,42.16
2023-01-17T07:12:57.940Z,42.16
2023-01-17T07:13:57.920Z,42.13
2023-01-17T07:14:57.933Z,42.16
2023-01-17T07:15:57.925Z,42.25
2023-01-17T07:16:57.907Z,42.13
2023-01-17T07:17:57.884Z,42.25
2023-01-17T07:18:57.890Z,42.13
2023-01-17T07:19:57.897Z,42.25
2023-01-17T07:20:57.869Z,42.24
2023-01-17T07:21:57.873Z,42.13
2023-01-17T07:22:57.819Z,42.13
2023-01-17T07:23:57.821Z,42.13
2023-01-17T07:24:57.793Z,42.13
2023-01-17T07:25:57.847Z,42.13
2023-01-17T07:26:57.811Z,42.13
2023-01-17T07:27:57.981Z,42.13
2023-01-17T07:28:57.755Z,42.13
2023-01-17T07:29:57.739Z,42.13
2023-01-17T07:30:57.716Z,42.13
2023-01-17T07:31:57.685Z,42.13
2023-01-17T07:32:57.739Z,42.13
2023-01-17T07:33:57.720Z,42.13
2023-01-17T07:34:57.774Z,42.03
2023-01-17T07:35:57.712Z,42.13
2023-01-17T07:36:57.655Z,42.13
2023-01-17T07:37:57.646Z,42.13
2023-01-17T07:38:57.648Z,42.03
2023-01-17T07:39:57.642Z,42.03
2023-01-17T07:40:57.636Z,42.03
2023-01-17T07:41:57.615Z,42.03
2023-01-17T07:42:57.640Z,42.13
2023-01-17T07:43:57.596Z,42.13
2023-01-17T07:44:57.611Z,42.03
2023-01-17T07:45:57.573Z,42.03
2023-01-17T07:46:57.568Z,42.03
2023-01-17T07:47:57.581Z,42.03
2023-01-17T07:48:57.552Z,42.03
2023-01-17T07:49:57.527Z,42.03
2023-01-17T07:50:57.564Z,42.03
2023-01-17T07:51:57.587Z,42.03
2023-01-17T07:52:57.571Z,41.63
2023-01-17T07:53:57.581Z,41.33
2023-01-17T07:54:57.581Z,41.23
2023-01-17T07:55:57.488Z,40.31
2023-01-17T07:56:57.493Z,41.01
2023-01-17T07:57:57.484Z,39.61
2023-01-17T07:58:57.374Z,39.61
2023-01-17T07:59:57.387Z,39.71
2023-01-17T08:00:57.500Z,39.40
2023-01-17T08:01:57.585Z,39.31
2023-01-17T08:02:57.437Z,39.61
2023-01-17T08:03:57.391Z,39.31
2023-01-17T08:04:57.330Z,40.11
2023-01-17T08:05:57.435Z,40.19
2023-01-17T08:06:58.164Z,36.30
2023-01-17T08:07:59.235Z,35.85
2023-01-17T08:08:59.298Z,36.55
2023-01-17T08:09:59.374Z,37.17
2023-01-17T08:10:59.211Z,37.35
2023-01-17T08:11:59.829Z,36.67
2023-01-17T08:12:59.810Z,35.77
2023-01-17T08:14:00.002Z,36.07
2023-01-17T08:15:29.032Z,36.77
2023-01-17T08:16:29.445Z,36.57
2023-01-17T08:17:29.569Z,36.67
2023-01-17T08:18:29.121Z,36.47
2023-01-17T08:19:29.963Z,32.36
2023-01-17T08:20:31.586Z,35.68
2023-01-17T08:21:34.035Z,37.34
2023-01-17T08:22:37.251Z,37.54
2023-01-17T08:23:38.618Z,40.17
2023-01-17T08:24:38.048Z,40.97
2023-01-17T08:25:36.808Z,42.11
2023-01-17T08:26:37.538Z,40.95
2023-01-17T08:27:36.269Z,41.86
2023-01-17T08:28:33.249Z,41.16
2023-01-17T08:29:32.141Z,40.08
2023-01-17T08:30:31.205Z,39.50
2023-01-17T08:31:30.625Z,38.87
2023-01-17T08:32:30.073Z,38.33
2023-01-17T08:33:29.653Z,37.81
2023-01-17T08:34:29.319Z,37.69
2023-01-17T08:35:29.048Z,37.59
2023-01-17T08:36:28.930Z,37.87
2023-01-17T08:37:28.686Z,38.26
2023-01-17T08:38:28.527Z,37.96
2023-01-17T08:39:28.415Z,38.06
2023-01-17T08:40:28.228Z,38.14
2023-01-17T08:41:28.046Z,40.55
2023-01-17T08:42:27.956Z,38.92
2023-01-17T08:43:27.877Z,39.32
2023-01-17T08:44:27.803Z,39.32
2023-01-17T08:45:27.730Z,39.62
2023-01-17T08:46:27.502Z,39.81
2023-01-17T08:47:27.337Z,40.61
2023-01-17T08:48:27.282Z,40.39
2023-01-17T08:49:27.242Z,40.49
2023-01-17T08:50:27.179Z,40.69
2023-01-17T08:51:27.040Z,40.67
2023-01-17T08:52:26.995Z,40.77
2023-01-17T08:53:26.843Z,40.65
2023-01-17T08:54:26.747Z,40.55
2023-01-17T08:55:26.673Z,40.85
2023-01-17T08:56:26.677Z,40.95
2023-01-17T08:57:26.544Z,41.15
2023-01-17T08:58:26.366Z,40.75
2023-01-17T08:59:26.155Z,40.55
2023-01-17T09:00:26.169Z,40.05
2023-01-17T09:01:26.417Z,39.75
2023-01-17T09:02:26.083Z,39.05
2023-01-17T09:03:26.040Z,39.15
2023-01-17T09:04:25.952Z,38.65
2023-01-17T09:05:25.684Z,37.25
2023-01-17T09:06:25.592Z,37.15
2023-01-17T09:07:25.515Z,38.35
2023-01-17T09:08:25.456Z,37.75
2023-01-17T09:09:25.359Z,36.44
2023-01-17T09:10:25.315Z,36.75
2023-01-17T09:11:25.362Z,37.95
2023-01-17T09:12:25.371Z,37.65
2023-01-17T09:13:25.227Z,37.55
2023-01-17T09:14:25.241Z,37.55
2023-01-17T09:15:25.271Z,37.45
2023-01-17T09:16:25.171Z,38.55
2023-01-17T09:17:24.961Z,35.75
2023-01-17T09:18:25.195Z,37.65
2023-01-17T09:19:25.701Z,36.85
2023-01-17T09:20:25.781Z,36.15
2023-01-17T09:21:25.682Z,36.83
2023-01-17T09:22:25.616Z,36.23
2023-01-17T09:23:25.611Z,36.63
2023-01-17T09:24:25.721Z,36.33
2023-01-17T09:25:25.576Z,36.13
2023-01-17T09:26:25.463Z,35.53
2023-01-17T09:27:25.319Z,35.83
2023-01-17T09:28:25.191Z,36.03
2023-01-17T09:29:25.083Z,36.13
2023-01-17T09:30:24.990Z,36.23
2023-01-17T09:31:24.846Z,36.33
2023-01-17T09:32:24.780Z,36.43
2023-01-17T09:33:24.675Z,36.63
2023-01-17T09:34:24.632Z,36.75
2023-01-17T09:35:24.588Z,36.94
2023-01-17T09:36:24.546Z,37.15
2023-01-17T09:37:24.527Z,37.25
2023-01-17T09:38:24.500Z,37.25
2023-01-17T09:39:24.427Z,37.35
2023-01-17T09:40:24.349Z,37.46
2023-01-17T09:41:24.297Z,37.57
2023-01-17T09:42:24.213Z,37.45
2023-01-17T09:43:24.152Z,37.45
2023-01-17T09:44:24.132Z,37.55
2023-01-17T09:45:24.091Z,37.66
2023-01-17T09:46:24.004Z,37.77
2023-01-17T09:47:24.055Z,37.77
2023-01-17T09:48:23.931Z,37.87
2023-01-17T09:49:23.928Z,37.87
2023-01-17T09:50:23.878Z,37.96
2023-01-17T09:51:23.807Z,37.96
2023-01-17T09:52:23.760Z,38.07
2023-01-17T09:53:23.747Z,38.07
2023-01-17T09:54:23.745Z,38.17
2023-01-17T09:55:23.666Z,38.27
2023-01-17T09:56:23.740Z,38.27
2023-01-17T09:57:23.679Z,38.97
2023-01-17T09:58:23.708Z,38.47
2023-01-17T09:59:32.208Z,38.47
2023-01-17T10:00:23.681Z,39.17
2023-01-17T10:01:23.840Z,38.87
2023-01-17T10:02:26.242Z,38.77
2023-01-17T10:03:23.611Z,38.57
2023-01-17T10:04:23.460Z,38.97
2023-01-17T10:05:23.358Z,38.57
2023-01-17T10:06:23.269Z,38.57
2023-01-17T10:07:23.175Z,38.77
2023-01-17T10:08:23.154Z,39.18
2023-01-17T10:09:23.087Z,39.59
2023-01-17T10:10:22.988Z,39.29
2023-01-17T10:11:22.966Z,39.49
2023-01-17T10:12:22.891Z,39.59
2023-01-17T10:13:22.887Z,39.18
2023-01-17T10:14:22.834Z,39.59
2023-01-17T10:15:22.759Z,39.29
2023-01-17T10:16:22.745Z,39.29
2023-01-17T10:17:22.652Z,39.59
2023-01-17T10:18:29.863Z,39.39
2023-01-17T10:19:22.652Z,38.99
2023-01-17T10:20:22.537Z,39.29
2023-01-17T10:21:22.479Z,38.99
2023-01-17T10:22:22.379Z,38.97
2023-01-17T10:23:22.337Z,38.97
2023-01-17T10:24:22.260Z,38.97
2023-01-17T10:25:22.147Z,38.77
2023-01-17T10:26:22.129Z,38.57
2023-01-17T10:27:22.031Z,38.45
2023-01-17T10:28:21.907Z,38.35
2023-01-17T10:29:21.740Z,37.61
2023-01-17T10:30:21.623Z,36.99
2023-01-17T10:31:21.834Z,37.21
2023-01-17T10:32:21.482Z,37.41
2023-01-17T10:33:21.454Z,37.73
2023-01-17T10:34:21.277Z,37.40
2023-01-17T10:35:21.135Z,35.85
2023-01-17T10:36:21.116Z,35.86
2023-01-17T10:37:20.994Z,36.16
2023-01-17T10:38:20.863Z,35.94
2023-01-17T10:39:20.813Z,35.74
2023-01-17T10:40:20.762Z,36.26
2023-01-17T10:41:20.781Z,36.79
2023-01-17T10:42:20.804Z,37.31
2023-01-17T10:43:20.841Z,37.61
2023-01-17T10:44:20.828Z,37.83
2023-01-17T10:45:20.723Z,37.93
2023-01-17T10:46:20.720Z,38.13
2023-01-17T10:47:20.568Z,38.01
2023-01-17T10:48:23.138Z,37.81
2023-01-17T10:49:20.562Z,37.93
2023-01-17T10:50:20.497Z,38.03
2023-01-17T10:51:20.464Z,38.13
2023-01-17T10:52:20.410Z,38.13
2023-01-17T10:53:20.386Z,38.23
2023-01-17T10:54:20.369Z,38.23
2023-01-17T10:55:20.269Z,38.23
2023-01-17T10:56:20.192Z,38.11
2023-01-17T10:57:20.060Z,36.44
2023-01-17T10:58:19.945Z,35.74
2023-01-17T10:59:19.828Z,35.51
2023-01-17T11:00:20.659Z,35.11
2023-01-17T11:01:19.862Z,35.94
2023-01-17T11:02:19.829Z,35.85
2023-01-17T11:03:19.622Z,36.46
2023-01-17T11:04:19.601Z,36.78
2023-01-17T11:05:19.534Z,36.88
2023-01-17T11:06:19.362Z,35.94
2023-01-17T11:07:19.264Z,34.80
2023-01-17T11:08:19.080Z,33.25
2023-01-17T11:09:18.946Z,32.93
2023-01-17T11:10:18.921Z,33.76
2023-01-17T11:11:18.903Z,34.30
2023-01-17T11:12:18.912Z,34.81
2023-01-17T11:13:18.963Z,35.54
2023-01-17T11:14:19.024Z,36.26
2023-01-17T11:15:19.069Z,36.99
2023-01-17T11:16:19.188Z,36.79
2023-01-17T11:17:19.099Z,36.91
2023-01-17T11:18:19.039Z,37.01
2023-01-17T11:19:19.021Z,37.11
2023-01-17T11:20:18.955Z,37.11
2023-01-17T11:21:18.865Z,36.81
2023-01-17T11:22:18.756Z,36.81
2023-01-17T11:23:18.721Z,36.51
2023-01-17T11:24:18.630Z,36.29
2023-01-17T11:25:18.536Z,35.68
2023-01-17T11:26:18.482Z,35.58
2023-01-17T11:27:18.341Z,34.55
2023-01-17T11:28:18.256Z,34.75
2023-01-17T11:29:18.131Z,33.42
2023-01-17T11:30:18.012Z,32.77
2023-01-17T11:31:18.288Z,32.87
2023-01-17T11:32:17.828Z,33.17
2023-01-17T11:33:17.815Z,34.21
2023-01-17T11:34:17.831Z,35.05
2023-01-17T11:35:17.836Z,35.66
2023-01-17T11:36:17.743Z,35.98
2023-01-17T11:37:17.651Z,36.06
2023-01-17T11:38:17.633Z,36.16
2023-01-17T11:39:17.683Z,35.86
2023-01-17T11:40:17.581Z,35.48
2023-01-17T11:41:17.559Z,35.68
2023-01-17T11:42:17.421Z,35.98
2023-01-17T11:43:17.363Z,35.96
2023-01-17T11:44:17.337Z,36.18
2023-01-17T11:45:17.282Z,36.38
2023-01-17T11:46:17.280Z,36.38
2023-01-17T11:47:17.176Z,36.47
2023-01-17T11:48:17.142Z,36.58
2023-01-17T11:49:17.062Z,36.68
2023-01-17T11:50:17.149Z,36.78
2023-01-17T11:51:16.955Z,36.68
2023-01-17T11:52:16.910Z,36.68
2023-01-17T11:53:16.866Z,36.90
2023-01-17T11:54:16.814Z,36.78
2023-01-17T11:55:16.742Z,36.78
2023-01-17T11:56:16.706Z,36.88
2023-01-17T11:57:16.684Z,36.88
2023-01-17T11:58:16.560Z,36.98
2023-01-17T11:59:16.461Z,37.56
2023-01-17T12:00:16.465Z,36.96
2023-01-17T12:01:16.328Z,37.66
2023-01-17T12:02:16.233Z,37.36
2023-01-17T12:03:16.130Z,37.46
2023-01-17T12:04:16.037Z,37.44
2023-01-17T12:05:16.009Z,37.66
2023-01-17T12:06:15.966Z,37.96
2023-01-17T12:07:15.978Z,38.36
2023-01-17T12:08:15.950Z,38.96
2023-01-17T12:09:15.944Z,38.78
2023-01-17T12:10:16.062Z,39.56
2023-01-17T12:11:16.158Z,39.06
2023-01-17T12:12:15.816Z,39.15
2023-01-17T12:13:15.707Z,39.26
2023-01-17T12:14:15.636Z,39.26
2023-01-17T12:15:15.578Z,39.15
2023-01-17T12:16:15.581Z,39.28
2023-01-17T12:17:15.457Z,39.48
2023-01-17T12:18:15.438Z,39.48
2023-01-17T12:19:15.424Z,38.78
2023-01-17T12:20:15.336Z,37.88
2023-01-17T12:21:15.325Z,38.38
2023-01-17T12:22:15.271Z,38.57
2023-01-17T12:23:15.208Z,38.87
2023-01-17T12:24:15.176Z,39.20
2023-01-17T12:25:15.183Z,39.18
2023-01-17T12:26:15.089Z,39.18
2023-01-17T12:27:14.978Z,39.07
2023-01-17T12:28:14.918Z,39.18
2023-01-17T12:29:14.856Z,39.18
2023-01-17T12:30:14.833Z,39.18
2023-01-17T12:31:14.743Z,39.18
2023-01-17T12:32:14.671Z,39.07
2023-01-17T12:33:14.538Z,39.18
2023-01-17T12:34:14.475Z,39.18
2023-01-17T12:35:14.424Z,39.18
2023-01-17T12:36:14.332Z,39.18
2023-01-17T12:37:14.276Z,39.06
2023-01-17T12:38:27.409Z,39.06
2023-01-17T12:39:14.125Z,39.06
2023-01-17T12:40:14.089Z,39.06
2023-01-17T12:41:14.030Z,39.06
2023-01-17T12:42:13.934Z,39.06
2023-01-17T12:43:13.882Z,39.15
2023-01-17T12:44:13.875Z,39.26
2023-01-17T12:45:13.785Z,39.46
2023-01-17T12:46:13.800Z,39.46
2023-01-17T12:47:13.678Z,39.58
2023-01-17T12:48:13.644Z,39.78
2023-01-17T12:49:13.592Z,39.78
2023-01-17T12:50:13.695Z,39.78
2023-01-17T12:51:13.489Z,39.67
2023-01-17T12:52:13.471Z,39.58
2023-01-17T12:53:13.410Z,39.78